TAF KGSP
AMD KGSP 090731Z 0908/1006 VRB03KT 2SM BR BKN002 TEMPO 0908/0912 1/4SM FG OVC001 FM091300 06004KT P6SM SCT250 FM091700 13005KT P6SM BKN250 FM092300 17003KT P6SM BKN200 FM100400 22003KT P6SM SCT040 BKN150=
METAR KGSP
WC KGSP
WS KGSP
WV KGSP